sensor_id;sensor_type;location;lat;lon;timestamp;P1;durP1;ratioP1;P2;durP2;ratioP2
11504;SDS011;5809;53.262;10.408;2022-10-26T00:01:38;14.30;;;8.87;;
11504;SDS011;5809;53.262;10.408;2022-10-26T00:04:07;18.07;;;9.30;;
11504;SDS011;5809;53.262;10.408;2022-10-26T00:06:34;15.63;;;8.77;;
11504;SDS011;5809;53.262;10.408;2022-10-26T00:09:01;19.87;;;9.43;;
11504;SDS011;5809;53.262;10.408;2022-10-26T00:11:28;15.40;;;8.67;;
11504;SDS011;5809;53.262;10.408;2022-10-26T00:13:55;18.40;;;8.37;;
11504;SDS011;5809;53.262;10.408;2022-10-26T00:16:23;18.23;;;8.90;;
11504;SDS011;5809;53.262;10.408;2022-10-26T00:18:52;12.67;;;8.87;;
11504;SDS011;5809;53.262;10.408;2022-10-26T00:21:21;13.70;;;9.03;;
11504;SDS011;5809;53.262;10.408;2022-10-26T00:23:48;16.57;;;9.93;;
11504;SDS011;5809;53.262;10.408;2022-10-26T00:26:15;14.37;;;9.27;;
11504;SDS011;5809;53.262;10.408;2022-10-26T00:28:42;14.50;;;9.90;;
11504;SDS011;5809;53.262;10.408;2022-10-26T00:31:11;16.13;;;9.37;;
11504;SDS011;5809;53.262;10.408;2022-10-26T00:33:39;16.83;;;9.17;;
11504;SDS011;5809;53.262;10.408;2022-10-26T00:36:06;13.83;;;9.40;;
11504;SDS011;5809;53.262;10.408;2022-10-26T00:38:35;17.07;;;9.27;;
11504;SDS011;5809;53.262;10.408;2022-10-26T00:41:02;15.67;;;9.63;;
11504;SDS011;5809;53.262;10.408;2022-10-26T00:43:33;18.43;;;9.63;;
11504;SDS011;5809;53.262;10.408;2022-10-26T00:46:05;15.60;;;9.93;;
11504;SDS011;5809;53.262;10.408;2022-10-26T00:48:35;15.03;;;9.53;;
11504;SDS011;5809;53.262;10.408;2022-10-26T00:51:04;14.17;;;9.93;;
11504;SDS011;5809;53.262;10.408;2022-10-26T00:53:35;15.37;;;10.63;;
11504;SDS011;5809;53.262;10.408;2022-10-26T00:56:02;16.10;;;10.30;;
11504;SDS011;5809;53.262;10.408;2022-10-26T00:58:30;16.37;;;9.90;;
11504;SDS011;5809;53.262;10.408;2022-10-26T01:00:58;16.97;;;9.77;;
11504;SDS011;5809;53.262;10.408;2022-10-26T01:03:25;16.43;;;10.00;;
11504;SDS011;5809;53.262;10.408;2022-10-26T01:05:52;16.47;;;10.40;;
11504;SDS011;5809;53.262;10.408;2022-10-26T01:08:22;23.37;;;11.97;;
11504;SDS011;5809;53.262;10.408;2022-10-26T01:10:53;15.50;;;11.27;;
11504;SDS011;5809;53.262;10.408;2022-10-26T01:13:21;15.30;;;10.13;;
11504;SDS011;5809;53.262;10.408;2022-10-26T01:15:50;16.03;;;10.70;;
11504;SDS011;5809;53.262;10.408;2022-10-26T01:18:24;17.00;;;10.50;;
11504;SDS011;5809;53.262;10.408;2022-10-26T01:21:06;12.47;;;10.97;;
11504;SDS011;5809;53.262;10.408;2022-10-26T01:23:49;21.07;;;11.37;;
11504;SDS011;5809;53.262;10.408;2022-10-26T01:26:38;23.03;;;12.73;;
11504;SDS011;5809;53.262;10.408;2022-10-26T01:32:22;24.07;;;13.27;;
11504;SDS011;5809;53.262;10.408;2022-10-26T01:34:52;17.50;;;13.23;;
11504;SDS011;5809;53.262;10.408;2022-10-26T01:37:25;20.10;;;13.07;;
11504;SDS011;5809;53.262;10.408;2022-10-26T01:39:57;22.83;;;14.27;;
11504;SDS011;5809;53.262;10.408;2022-10-26T01:42:28;29.27;;;13.80;;
11504;SDS011;5809;53.262;10.408;2022-10-26T01:44:59;23.67;;;14.60;;
11504;SDS011;5809;53.262;10.408;2022-10-26T01:47:30;29.03;;;16.00;;
11504;SDS011;5809;53.262;10.408;2022-10-26T01:49:59;22.17;;;15.33;;
11504;SDS011;5809;53.262;10.408;2022-10-26T01:52:29;24.77;;;15.40;;
11504;SDS011;5809;53.262;10.408;2022-10-26T01:54:59;25.50;;;14.93;;
11504;SDS011;5809;53.262;10.408;2022-10-26T01:57:26;23.53;;;14.93;;
11504;SDS011;5809;53.262;10.408;2022-10-26T02:00:04;25.63;;;15.80;;
11504;SDS011;5809;53.262;10.408;2022-10-26T02:02:38;26.70;;;16.00;;
11504;SDS011;5809;53.262;10.408;2022-10-26T02:08:17;28.80;;;15.93;;
11504;SDS011;5809;53.262;10.408;2022-10-26T02:10:55;28.37;;;17.50;;
11504;SDS011;5809;53.262;10.408;2022-10-26T02:13:37;28.77;;;16.00;;
11504;SDS011;5809;53.262;10.408;2022-10-26T02:16:12;33.47;;;17.63;;
11504;SDS011;5809;53.262;10.408;2022-10-26T02:18:50;28.77;;;17.90;;
11504;SDS011;5809;53.262;10.408;2022-10-26T02:21:23;31.23;;;17.03;;
11504;SDS011;5809;53.262;10.408;2022-10-26T02:23:55;32.33;;;17.10;;
11504;SDS011;5809;53.262;10.408;2022-10-26T02:26:24;32.03;;;17.27;;
11504;SDS011;5809;53.262;10.408;2022-10-26T02:28:55;32.23;;;17.60;;
11504;SDS011;5809;53.262;10.408;2022-10-26T02:31:25;33.70;;;18.70;;
11504;SDS011;5809;53.262;10.408;2022-10-26T02:33:55;28.57;;;17.73;;
11504;SDS011;5809;53.262;10.408;2022-10-26T02:36:25;31.13;;;18.47;;
11504;SDS011;5809;53.262;10.408;2022-10-26T02:38:56;34.90;;;17.87;;
11504;SDS011;5809;53.262;10.408;2022-10-26T02:41:24;28.40;;;17.63;;
11504;SDS011;5809;53.262;10.408;2022-10-26T02:43:55;30.77;;;18.37;;
11504;SDS011;5809;53.262;10.408;2022-10-26T02:46:27;33.60;;;18.07;;
11504;SDS011;5809;53.262;10.408;2022-10-26T02:48:56;29.50;;;18.80;;
11504;SDS011;5809;53.262;10.408;2022-10-26T02:51:24;35.07;;;19.37;;
11504;SDS011;5809;53.262;10.408;2022-10-26T02:53:56;32.97;;;18.67;;
11504;SDS011;5809;53.262;10.408;2022-10-26T02:56:27;37.07;;;19.93;;
11504;SDS011;5809;53.262;10.408;2022-10-26T02:58:58;30.07;;;18.57;;
11504;SDS011;5809;53.262;10.408;2022-10-26T03:01:29;33.03;;;19.30;;
11504;SDS011;5809;53.262;10.408;2022-10-26T03:03:59;34.93;;;19.83;;
11504;SDS011;5809;53.262;10.408;2022-10-26T03:06:27;32.43;;;20.03;;
11504;SDS011;5809;53.262;10.408;2022-10-26T03:08:53;37.60;;;19.67;;
11504;SDS011;5809;53.262;10.408;2022-10-26T03:11:20;32.47;;;19.50;;
11504;SDS011;5809;53.262;10.408;2022-10-26T03:13:47;38.23;;;21.30;;
11504;SDS011;5809;53.262;10.408;2022-10-26T03:16:14;40.27;;;20.63;;
11504;SDS011;5809;53.262;10.408;2022-10-26T03:18:41;31.10;;;19.77;;
11504;SDS011;5809;53.262;10.408;2022-10-26T03:21:10;35.33;;;19.67;;
11504;SDS011;5809;53.262;10.408;2022-10-26T03:23:36;34.80;;;20.10;;
11504;SDS011;5809;53.262;10.408;2022-10-26T03:26:04;36.40;;;21.70;;
11504;SDS011;5809;53.262;10.408;2022-10-26T03:28:31;42.73;;;21.80;;
11504;SDS011;5809;53.262;10.408;2022-10-26T03:30:58;38.10;;;21.53;;
11504;SDS011;5809;53.262;10.408;2022-10-26T03:33:25;38.10;;;21.93;;
11504;SDS011;5809;53.262;10.408;2022-10-26T03:35:55;37.50;;;22.23;;
11504;SDS011;5809;53.262;10.408;2022-10-26T03:38:23;34.20;;;21.00;;
11504;SDS011;5809;53.262;10.408;2022-10-26T03:40:50;35.57;;;21.97;;
11504;SDS011;5809;53.262;10.408;2022-10-26T03:43:17;37.00;;;21.60;;
11504;SDS011;5809;53.262;10.408;2022-10-26T03:45:44;37.87;;;22.00;;
11504;SDS011;5809;53.262;10.408;2022-10-26T03:48:11;35.77;;;21.73;;
11504;SDS011;5809;53.262;10.408;2022-10-26T03:50:39;39.60;;;22.43;;
11504;SDS011;5809;53.262;10.408;2022-10-26T03:53:06;36.87;;;21.83;;
11504;SDS011;5809;53.262;10.408;2022-10-26T03:55:35;34.60;;;21.57;;
11504;SDS011;5809;53.262;10.408;2022-10-26T03:58:02;39.07;;;22.70;;
11504;SDS011;5809;53.262;10.408;2022-10-26T04:00:29;42.07;;;21.43;;
11504;SDS011;5809;53.262;10.408;2022-10-26T04:02:56;36.03;;;22.30;;
11504;SDS011;5809;53.262;10.408;2022-10-26T04:05:24;38.10;;;22.57;;
11504;SDS011;5809;53.262;10.408;2022-10-26T04:07:52;39.43;;;21.77;;
11504;SDS011;5809;53.262;10.408;2022-10-26T04:10:19;36.30;;;22.50;;
11504;SDS011;5809;53.262;10.408;2022-10-26T04:12:47;41.20;;;22.67;;
11504;SDS011;5809;53.262;10.408;2022-10-26T04:15:16;38.93;;;22.07;;
11504;SDS011;5809;53.262;10.408;2022-10-26T04:17:43;39.87;;;23.27;;
11504;SDS011;5809;53.262;10.408;2022-10-26T04:20:10;38.93;;;22.80;;
11504;SDS011;5809;53.262;10.408;2022-10-26T04:22:37;40.67;;;22.83;;
11504;SDS011;5809;53.262;10.408;2022-10-26T04:25:05;40.10;;;22.57;;
11504;SDS011;5809;53.262;10.408;2022-10-26T04:27:32;32.37;;;20.77;;
11504;SDS011;5809;53.262;10.408;2022-10-26T04:30:01;37.20;;;21.03;;
11504;SDS011;5809;53.262;10.408;2022-10-26T04:32:29;36.77;;;21.57;;
11504;SDS011;5809;53.262;10.408;2022-10-26T04:34:56;35.40;;;21.07;;
11504;SDS011;5809;53.262;10.408;2022-10-26T04:37:23;34.23;;;21.23;;
11504;SDS011;5809;53.262;10.408;2022-10-26T04:39:50;34.27;;;20.00;;
11504;SDS011;5809;53.262;10.408;2022-10-26T04:42:17;37.70;;;20.97;;
11504;SDS011;5809;53.262;10.408;2022-10-26T04:44:44;33.23;;;20.67;;
11504;SDS011;5809;53.262;10.408;2022-10-26T04:47:13;35.63;;;20.93;;
11504;SDS011;5809;53.262;10.408;2022-10-26T04:49:39;35.90;;;21.73;;
11504;SDS011;5809;53.262;10.408;2022-10-26T04:52:07;36.97;;;21.60;;
11504;SDS011;5809;53.262;10.408;2022-10-26T04:54:34;31.50;;;20.87;;
11504;SDS011;5809;53.262;10.408;2022-10-26T04:57:01;34.13;;;20.87;;
11504;SDS011;5809;53.262;10.408;2022-10-26T04:59:28;34.93;;;21.03;;
11504;SDS011;5809;53.262;10.408;2022-10-26T05:01:55;34.47;;;20.43;;
11504;SDS011;5809;53.262;10.408;2022-10-26T05:04:24;33.57;;;20.57;;
11504;SDS011;5809;53.262;10.408;2022-10-26T05:06:51;31.53;;;19.77;;
11504;SDS011;5809;53.262;10.408;2022-10-26T05:09:18;31.70;;;19.57;;
11504;SDS011;5809;53.262;10.408;2022-10-26T05:11:45;34.03;;;20.33;;
11504;SDS011;5809;53.262;10.408;2022-10-26T05:14:12;31.77;;;19.93;;
11504;SDS011;5809;53.262;10.408;2022-10-26T05:16:38;28.37;;;19.67;;
11504;SDS011;5809;53.262;10.408;2022-10-26T05:19:06;30.23;;;18.60;;
11504;SDS011;5809;53.262;10.408;2022-10-26T05:21:34;32.20;;;20.10;;
11504;SDS011;5809;53.262;10.408;2022-10-26T05:24:01;28.60;;;19.03;;
11504;SDS011;5809;53.262;10.408;2022-10-26T05:26:29;31.37;;;19.90;;
11504;SDS011;5809;53.262;10.408;2022-10-26T05:28:56;34.83;;;19.90;;
11504;SDS011;5809;53.262;10.408;2022-10-26T05:31:24;29.17;;;18.63;;
11504;SDS011;5809;53.262;10.408;2022-10-26T05:33:51;32.83;;;19.27;;
11504;SDS011;5809;53.262;10.408;2022-10-26T05:36:21;30.90;;;18.90;;
11504;SDS011;5809;53.262;10.408;2022-10-26T05:38:49;32.07;;;20.00;;
11504;SDS011;5809;53.262;10.408;2022-10-26T05:41:16;31.40;;;20.43;;
11504;SDS011;5809;53.262;10.408;2022-10-26T05:43:45;29.83;;;19.83;;
11504;SDS011;5809;53.262;10.408;2022-10-26T05:46:13;32.17;;;20.10;;
11504;SDS011;5809;53.262;10.408;2022-10-26T05:48:40;32.63;;;19.87;;
11504;SDS011;5809;53.262;10.408;2022-10-26T05:51:07;29.73;;;19.53;;
11504;SDS011;5809;53.262;10.408;2022-10-26T05:53:34;33.77;;;20.33;;
11504;SDS011;5809;53.262;10.408;2022-10-26T05:56:07;32.00;;;19.03;;
11504;SDS011;5809;53.262;10.408;2022-10-26T05:58:40;31.10;;;20.37;;
11504;SDS011;5809;53.262;10.408;2022-10-26T06:01:10;31.00;;;19.87;;
11504;SDS011;5809;53.262;10.408;2022-10-26T06:03:47;34.73;;;21.57;;
11504;SDS011;5809;53.262;10.408;2022-10-26T06:06:26;37.07;;;20.37;;
11504;SDS011;5809;53.262;10.408;2022-10-26T06:08:59;29.37;;;19.07;;
11504;SDS011;5809;53.262;10.408;2022-10-26T06:11:28;35.57;;;20.43;;
11504;SDS011;5809;53.262;10.408;2022-10-26T06:13:56;32.40;;;19.77;;
11504;SDS011;5809;53.262;10.408;2022-10-26T06:16:27;38.57;;;20.97;;
11504;SDS011;5809;53.262;10.408;2022-10-26T06:19:02;34.53;;;19.93;;
11504;SDS011;5809;53.262;10.408;2022-10-26T06:21:37;30.27;;;20.33;;
11504;SDS011;5809;53.262;10.408;2022-10-26T06:24:22;33.37;;;22.17;;
11504;SDS011;5809;53.262;10.408;2022-10-26T06:26:58;32.93;;;20.20;;
11504;SDS011;5809;53.262;10.408;2022-10-26T06:29:35;34.50;;;20.90;;
11504;SDS011;5809;53.262;10.408;2022-10-26T06:32:09;33.27;;;20.37;;
11504;SDS011;5809;53.262;10.408;2022-10-26T06:34:36;36.70;;;21.17;;
11504;SDS011;5809;53.262;10.408;2022-10-26T06:37:09;29.83;;;19.50;;
11504;SDS011;5809;53.262;10.408;2022-10-26T06:39:38;32.90;;;19.07;;
11504;SDS011;5809;53.262;10.408;2022-10-26T06:42:11;29.57;;;19.33;;
11504;SDS011;5809;53.262;10.408;2022-10-26T06:44:39;32.30;;;20.60;;
11504;SDS011;5809;53.262;10.408;2022-10-26T06:47:07;28.70;;;19.97;;
11504;SDS011;5809;53.262;10.408;2022-10-26T06:49:40;29.17;;;19.60;;
11504;SDS011;5809;53.262;10.408;2022-10-26T06:52:20;23.67;;;17.83;;
11504;SDS011;5809;53.262;10.408;2022-10-26T06:54:54;18.80;;;14.67;;
11504;SDS011;5809;53.262;10.408;2022-10-26T06:57:24;20.20;;;14.93;;
11504;SDS011;5809;53.262;10.408;2022-10-26T06:59:54;18.83;;;13.43;;
11504;SDS011;5809;53.262;10.408;2022-10-26T07:02:24;16.23;;;13.27;;
11504;SDS011;5809;53.262;10.408;2022-10-26T07:04:52;14.07;;;12.60;;
11504;SDS011;5809;53.262;10.408;2022-10-26T07:07:19;14.82;;;12.10;;
11504;SDS011;5809;53.262;10.408;2022-10-26T07:09:47;14.18;;;11.38;;
11504;SDS011;5809;53.262;10.408;2022-10-26T07:12:14;12.93;;;11.40;;
11504;SDS011;5809;53.262;10.408;2022-10-26T07:14:43;12.73;;;10.70;;
11504;SDS011;5809;53.262;10.408;2022-10-26T07:17:09;12.93;;;9.70;;
11504;SDS011;5809;53.262;10.408;2022-10-26T07:19:36;10.68;;;9.27;;
11504;SDS011;5809;53.262;10.408;2022-10-26T07:22:04;10.40;;;8.90;;
11504;SDS011;5809;53.262;10.408;2022-10-26T07:24:31;11.73;;;8.68;;
11504;SDS011;5809;53.262;10.408;2022-10-26T07:26:58;12.07;;;7.63;;
11504;SDS011;5809;53.262;10.408;2022-10-26T07:29:25;10.50;;;8.30;;
11504;SDS011;5809;53.262;10.408;2022-10-26T07:31:54;13.10;;;8.25;;
11504;SDS011;5809;53.262;10.408;2022-10-26T07:34:21;9.30;;;8.02;;
11504;SDS011;5809;53.262;10.408;2022-10-26T07:36:47;45.30;;;37.72;;
11504;SDS011;5809;53.262;10.408;2022-10-26T07:39:15;27.70;;;23.27;;
11504;SDS011;5809;53.262;10.408;2022-10-26T07:41:43;8.38;;;7.47;;
11504;SDS011;5809;53.262;10.408;2022-10-26T07:44:11;16.05;;;14.43;;
11504;SDS011;5809;53.262;10.408;2022-10-26T07:46:38;8.95;;;7.30;;
11504;SDS011;5809;53.262;10.408;2022-10-26T07:49:06;31.15;;;26.63;;
11504;SDS011;5809;53.262;10.408;2022-10-26T07:51:33;7.22;;;6.10;;
11504;SDS011;5809;53.262;10.408;2022-10-26T07:54:00;9.40;;;6.32;;
11504;SDS011;5809;53.262;10.408;2022-10-26T07:56:27;7.28;;;6.57;;
11504;SDS011;5809;53.262;10.408;2022-10-26T07:58:54;9.07;;;6.63;;
11504;SDS011;5809;53.262;10.408;2022-10-26T08:01:22;9.60;;;6.47;;
11504;SDS011;5809;53.262;10.408;2022-10-26T08:03:50;8.60;;;6.88;;
11504;SDS011;5809;53.262;10.408;2022-10-26T08:06:18;8.52;;;6.30;;
11504;SDS011;5809;53.262;10.408;2022-10-26T08:08:45;7.90;;;6.45;;
11504;SDS011;5809;53.262;10.408;2022-10-26T08:11:13;8.20;;;5.78;;
11504;SDS011;5809;53.262;10.408;2022-10-26T08:13:40;7.55;;;6.53;;
11504;SDS011;5809;53.262;10.408;2022-10-26T08:16:07;6.75;;;6.10;;
11504;SDS011;5809;53.262;10.408;2022-10-26T08:18:34;8.80;;;6.63;;
11504;SDS011;5809;53.262;10.408;2022-10-26T08:21:02;7.85;;;6.53;;
11504;SDS011;5809;53.262;10.408;2022-10-26T08:23:32;7.10;;;5.80;;
11504;SDS011;5809;53.262;10.408;2022-10-26T08:25:59;6.38;;;5.60;;
11504;SDS011;5809;53.262;10.408;2022-10-26T08:28:27;7.35;;;5.95;;
11504;SDS011;5809;53.262;10.408;2022-10-26T08:30:54;8.40;;;5.60;;
11504;SDS011;5809;53.262;10.408;2022-10-26T08:33:22;7.97;;;5.60;;
11504;SDS011;5809;53.262;10.408;2022-10-26T08:35:53;7.40;;;5.30;;
11504;SDS011;5809;53.262;10.408;2022-10-26T08:38:20;9.52;;;5.35;;
11504;SDS011;5809;53.262;10.408;2022-10-26T08:40:49;11.18;;;5.75;;
11504;SDS011;5809;53.262;10.408;2022-10-26T08:43:18;10.43;;;5.78;;
11504;SDS011;5809;53.262;10.408;2022-10-26T08:45:49;6.95;;;5.78;;
11504;SDS011;5809;53.262;10.408;2022-10-26T08:48:20;23.27;;;18.00;;
11504;SDS011;5809;53.262;10.408;2022-10-26T08:50:50;7.95;;;4.75;;
11504;SDS011;5809;53.262;10.408;2022-10-26T08:53:20;5.50;;;4.72;;
11504;SDS011;5809;53.262;10.408;2022-10-26T08:55:55;7.82;;;4.85;;
11504;SDS011;5809;53.262;10.408;2022-10-26T08:58:26;6.85;;;4.68;;
11504;SDS011;5809;53.262;10.408;2022-10-26T09:00:55;8.43;;;4.65;;
11504;SDS011;5809;53.262;10.408;2022-10-26T09:03:23;6.63;;;4.60;;
11504;SDS011;5809;53.262;10.408;2022-10-26T09:05:57;5.03;;;4.28;;
11504;SDS011;5809;53.262;10.408;2022-10-26T09:08:37;5.63;;;4.18;;
11504;SDS011;5809;53.262;10.408;2022-10-26T09:11:15;5.22;;;3.55;;
11504;SDS011;5809;53.262;10.408;2022-10-26T09:13:55;5.95;;;4.00;;
11504;SDS011;5809;53.262;10.408;2022-10-26T09:16:30;5.63;;;3.53;;
11504;SDS011;5809;53.262;10.408;2022-10-26T09:19:10;4.00;;;3.45;;
11504;SDS011;5809;53.262;10.408;2022-10-26T09:21:58;5.53;;;3.53;;
11504;SDS011;5809;53.262;10.408;2022-10-26T09:24:32;5.55;;;3.72;;
11504;SDS011;5809;53.262;10.408;2022-10-26T09:27:07;8.23;;;3.53;;
11504;SDS011;5809;53.262;10.408;2022-10-26T09:29:42;6.75;;;3.67;;
11504;SDS011;5809;53.262;10.408;2022-10-26T09:32:10;3.53;;;3.00;;
11504;SDS011;5809;53.262;10.408;2022-10-26T09:34:44;5.95;;;3.92;;
11504;SDS011;5809;53.262;10.408;2022-10-26T09:37:15;5.35;;;3.42;;
11504;SDS011;5809;53.262;10.408;2022-10-26T09:39:46;7.05;;;3.63;;
11504;SDS011;5809;53.262;10.408;2022-10-26T09:42:21;5.05;;;3.63;;
11504;SDS011;5809;53.262;10.408;2022-10-26T09:44:53;6.15;;;3.17;;
11504;SDS011;5809;53.262;10.408;2022-10-26T09:47:34;5.50;;;3.63;;
11504;SDS011;5809;53.262;10.408;2022-10-26T09:50:06;4.68;;;3.42;;
11504;SDS011;5809;53.262;10.408;2022-10-26T09:52:43;6.47;;;3.78;;
11504;SDS011;5809;53.262;10.408;2022-10-26T09:55:10;6.20;;;3.42;;
11504;SDS011;5809;53.262;10.408;2022-10-26T09:57:39;7.82;;;3.78;;
11504;SDS011;5809;53.262;10.408;2022-10-26T10:00:11;6.30;;;4.13;;
11504;SDS011;5809;53.262;10.408;2022-10-26T10:02:40;6.63;;;3.92;;
11504;SDS011;5809;53.262;10.408;2022-10-26T10:05:25;5.68;;;4.00;;
11504;SDS011;5809;53.262;10.408;2022-10-26T10:08:09;4.85;;;3.80;;
11504;SDS011;5809;53.262;10.408;2022-10-26T10:10:51;4.65;;;3.50;;
11504;SDS011;5809;53.262;10.408;2022-10-26T10:13:20;4.85;;;3.60;;
11504;SDS011;5809;53.262;10.408;2022-10-26T10:15:50;6.70;;;3.67;;
11504;SDS011;5809;53.262;10.408;2022-10-26T10:18:19;9.05;;;4.10;;
11504;SDS011;5809;53.262;10.408;2022-10-26T10:20:51;9.35;;;4.10;;
11504;SDS011;5809;53.262;10.408;2022-10-26T10:23:25;5.45;;;3.85;;
11504;SDS011;5809;53.262;10.408;2022-10-26T10:25:57;6.80;;;3.50;;
11504;SDS011;5809;53.262;10.408;2022-10-26T10:28:26;5.65;;;3.50;;
11504;SDS011;5809;53.262;10.408;2022-10-26T10:30:55;7.70;;;3.90;;
11504;SDS011;5809;53.262;10.408;2022-10-26T10:33:30;6.35;;;3.85;;
11504;SDS011;5809;53.262;10.408;2022-10-26T10:36:03;4.55;;;3.50;;
11504;SDS011;5809;53.262;10.408;2022-10-26T10:38:35;6.38;;;3.70;;
11504;SDS011;5809;53.262;10.408;2022-10-26T10:41:04;7.43;;;4.20;;
11504;SDS011;5809;53.262;10.408;2022-10-26T10:43:42;6.78;;;3.58;;
11504;SDS011;5809;53.262;10.408;2022-10-26T10:46:17;8.07;;;3.65;;
11504;SDS011;5809;53.262;10.408;2022-10-26T10:48:46;5.20;;;3.40;;
11504;SDS011;5809;53.262;10.408;2022-10-26T10:51:17;5.32;;;3.20;;
11504;SDS011;5809;53.262;10.408;2022-10-26T10:53:46;5.72;;;3.45;;
11504;SDS011;5809;53.262;10.408;2022-10-26T10:59:24;5.25;;;3.35;;
11504;SDS011;5809;53.262;10.408;2022-10-26T11:02:08;6.82;;;4.28;;
11504;SDS011;5809;53.262;10.408;2022-10-26T11:05:12;6.32;;;2.90;;
11504;SDS011;5809;53.262;10.408;2022-10-26T11:07:51;6.00;;;3.38;;
11504;SDS011;5809;53.262;10.408;2022-10-26T11:10:21;4.45;;;3.05;;
11504;SDS011;5809;53.262;10.408;2022-10-26T11:12:54;4.78;;;3.20;;
11504;SDS011;5809;53.262;10.408;2022-10-26T11:15:26;5.57;;;3.58;;
11504;SDS011;5809;53.262;10.408;2022-10-26T11:17:58;7.03;;;3.20;;
11504;SDS011;5809;53.262;10.408;2022-10-26T11:20:31;5.30;;;3.20;;
11504;SDS011;5809;53.262;10.408;2022-10-26T11:23:02;8.00;;;3.53;;
11504;SDS011;5809;53.262;10.408;2022-10-26T11:25:35;6.70;;;3.17;;
11504;SDS011;5809;53.262;10.408;2022-10-26T11:28:11;5.13;;;2.97;;
11504;SDS011;5809;53.262;10.408;2022-10-26T11:30:45;3.28;;;2.90;;
11504;SDS011;5809;53.262;10.408;2022-10-26T11:33:17;6.32;;;2.65;;
11504;SDS011;5809;53.262;10.408;2022-10-26T11:35:51;5.07;;;2.83;;
11504;SDS011;5809;53.262;10.408;2022-10-26T11:38:23;5.88;;;2.92;;
11504;SDS011;5809;53.262;10.408;2022-10-26T11:40:59;7.47;;;2.80;;
11504;SDS011;5809;53.262;10.408;2022-10-26T11:43:32;6.10;;;2.30;;
11504;SDS011;5809;53.262;10.408;2022-10-26T11:46:05;4.90;;;2.50;;
11504;SDS011;5809;53.262;10.408;2022-10-26T11:48:39;5.45;;;2.67;;
11504;SDS011;5809;53.262;10.408;2022-10-26T11:51:12;4.10;;;2.45;;
11504;SDS011;5809;53.262;10.408;2022-10-26T11:53:45;6.47;;;2.55;;
11504;SDS011;5809;53.262;10.408;2022-10-26T11:56:15;2.20;;;2.00;;
11504;SDS011;5809;53.262;10.408;2022-10-26T11:58:49;4.95;;;2.25;;
11504;SDS011;5809;53.262;10.408;2022-10-26T12:01:17;4.50;;;2.45;;
11504;SDS011;5809;53.262;10.408;2022-10-26T12:03:46;10.98;;;2.22;;
11504;SDS011;5809;53.262;10.408;2022-10-26T12:06:17;5.72;;;2.08;;
11504;SDS011;5809;53.262;10.408;2022-10-26T12:08:49;4.40;;;2.20;;
11504;SDS011;5809;53.262;10.408;2022-10-26T12:11:22;4.60;;;2.10;;
11504;SDS011;5809;53.262;10.408;2022-10-26T12:14:00;5.40;;;2.60;;
11504;SDS011;5809;53.262;10.408;2022-10-26T12:16:38;5.88;;;2.22;;
11504;SDS011;5809;53.262;10.408;2022-10-26T12:19:11;4.57;;;2.60;;
11504;SDS011;5809;53.262;10.408;2022-10-26T12:21:43;3.55;;;1.83;;
11504;SDS011;5809;53.262;10.408;2022-10-26T12:27:03;3.13;;;1.98;;
11504;SDS011;5809;53.262;10.408;2022-10-26T12:29:32;6.07;;;2.00;;
11504;SDS011;5809;53.262;10.408;2022-10-26T12:32:03;3.38;;;1.88;;
11504;SDS011;5809;53.262;10.408;2022-10-26T12:34:59;4.95;;;1.80;;
11504;SDS011;5809;53.262;10.408;2022-10-26T12:37:30;5.68;;;1.98;;
11504;SDS011;5809;53.262;10.408;2022-10-26T12:52:17;3.38;;;1.88;;
11504;SDS011;5809;53.262;10.408;2022-10-26T12:55:01;4.07;;;1.92;;
11504;SDS011;5809;53.262;10.408;2022-10-26T12:57:46;5.82;;;1.80;;
11504;SDS011;5809;53.262;10.408;2022-10-26T13:00:25;7.47;;;1.80;;
11504;SDS011;5809;53.262;10.408;2022-10-26T13:02:59;3.65;;;1.63;;
11504;SDS011;5809;53.262;10.408;2022-10-26T13:08:41;4.80;;;1.90;;
11504;SDS011;5809;53.262;10.408;2022-10-26T13:11:15;4.78;;;1.90;;
11504;SDS011;5809;53.262;10.408;2022-10-26T13:13:44;7.50;;;1.80;;
11504;SDS011;5809;53.262;10.408;2022-10-26T13:16:17;6.30;;;1.90;;
11504;SDS011;5809;53.262;10.408;2022-10-26T13:18:44;5.63;;;2.00;;
11504;SDS011;5809;53.262;10.408;2022-10-26T13:21:14;5.38;;;2.08;;
11504;SDS011;5809;53.262;10.408;2022-10-26T13:23:43;2.65;;;1.83;;
11504;SDS011;5809;53.262;10.408;2022-10-26T13:26:13;5.18;;;1.75;;
11504;SDS011;5809;53.262;10.408;2022-10-26T13:28:42;6.18;;;2.03;;
11504;SDS011;5809;53.262;10.408;2022-10-26T13:34:24;4.28;;;1.95;;
11504;SDS011;5809;53.262;10.408;2022-10-26T13:37:02;2.97;;;1.70;;
11504;SDS011;5809;53.262;10.408;2022-10-26T13:39:39;3.05;;;1.67;;
11504;SDS011;5809;53.262;10.408;2022-10-26T13:42:10;5.47;;;2.40;;
11504;SDS011;5809;53.262;10.408;2022-10-26T13:44:41;6.57;;;1.83;;
11504;SDS011;5809;53.262;10.408;2022-10-26T13:47:15;4.20;;;1.98;;
11504;SDS011;5809;53.262;10.408;2022-10-26T13:49:49;6.20;;;2.45;;
11504;SDS011;5809;53.262;10.408;2022-10-26T13:52:20;3.95;;;2.65;;
11504;SDS011;5809;53.262;10.408;2022-10-26T13:54:55;4.90;;;2.05;;
11504;SDS011;5809;53.262;10.408;2022-10-26T13:57:27;9.07;;;2.22;;
11504;SDS011;5809;53.262;10.408;2022-10-26T13:59:57;6.18;;;2.40;;
11504;SDS011;5809;53.262;10.408;2022-10-26T14:02:32;7.18;;;1.92;;
11504;SDS011;5809;53.262;10.408;2022-10-26T14:05:00;4.43;;;2.10;;
11504;SDS011;5809;53.262;10.408;2022-10-26T14:07:29;4.07;;;2.10;;
11504;SDS011;5809;53.262;10.408;2022-10-26T14:10:03;5.28;;;2.25;;
11504;SDS011;5809;53.262;10.408;2022-10-26T14:12:31;3.88;;;2.17;;
11504;SDS011;5809;53.262;10.408;2022-10-26T14:15:00;5.55;;;2.30;;
11504;SDS011;5809;53.262;10.408;2022-10-26T14:17:30;6.55;;;2.08;;
11504;SDS011;5809;53.262;10.408;2022-10-26T14:19:58;4.10;;;2.08;;
11504;SDS011;5809;53.262;10.408;2022-10-26T14:22:26;6.45;;;2.40;;
11504;SDS011;5809;53.262;10.408;2022-10-26T14:24:55;5.15;;;2.05;;
11504;SDS011;5809;53.262;10.408;2022-10-26T14:27:25;4.88;;;2.25;;
11504;SDS011;5809;53.262;10.408;2022-10-26T14:29:56;6.20;;;2.28;;
11504;SDS011;5809;53.262;10.408;2022-10-26T14:32:25;4.38;;;2.08;;
11504;SDS011;5809;53.262;10.408;2022-10-26T14:34:52;7.75;;;2.20;;
11504;SDS011;5809;53.262;10.408;2022-10-26T14:37:23;6.28;;;2.30;;
11504;SDS011;5809;53.262;10.408;2022-10-26T14:39:57;7.03;;;2.95;;
11504;SDS011;5809;53.262;10.408;2022-10-26T14:42:27;8.02;;;2.88;;
11504;SDS011;5809;53.262;10.408;2022-10-26T14:44:56;5.28;;;2.08;;
11504;SDS011;5809;53.262;10.408;2022-10-26T14:47:25;5.28;;;2.17;;
11504;SDS011;5809;53.262;10.408;2022-10-26T14:49:53;4.45;;;1.73;;
11504;SDS011;5809;53.262;10.408;2022-10-26T14:52:22;7.95;;;2.90;;
11504;SDS011;5809;53.262;10.408;2022-10-26T14:54:57;8.48;;;2.00;;
11504;SDS011;5809;53.262;10.408;2022-10-26T14:57:31;5.78;;;2.38;;
11504;SDS011;5809;53.262;10.408;2022-10-26T15:00:00;7.38;;;2.30;;
11504;SDS011;5809;53.262;10.408;2022-10-26T15:02:30;4.85;;;2.20;;
11504;SDS011;5809;53.262;10.408;2022-10-26T15:04:58;6.18;;;2.13;;
11504;SDS011;5809;53.262;10.408;2022-10-26T15:07:33;5.65;;;2.17;;
11504;SDS011;5809;53.262;10.408;2022-10-26T15:10:01;6.28;;;2.30;;
11504;SDS011;5809;53.262;10.408;2022-10-26T15:12:29;5.50;;;1.95;;
11504;SDS011;5809;53.262;10.408;2022-10-26T15:15:01;4.35;;;2.25;;
11504;SDS011;5809;53.262;10.408;2022-10-26T15:17:41;4.95;;;2.75;;
11504;SDS011;5809;53.262;10.408;2022-10-26T15:20:16;5.72;;;2.72;;
11504;SDS011;5809;53.262;10.408;2022-10-26T15:22:48;7.68;;;3.50;;
11504;SDS011;5809;53.262;10.408;2022-10-26T15:25:16;5.75;;;3.33;;
11504;SDS011;5809;53.262;10.408;2022-10-26T15:27:48;4.57;;;2.72;;